createdAt,value
2018-12-18T00:00:46.388Z,42.00
2018-12-18T00:01:46.469Z,39.70
2018-12-18T00:02:46.570Z,44.10
2018-12-18T00:03:46.740Z,44.50
2018-12-18T00:04:46.764Z,43.80
2018-12-18T00:05:46.833Z,41.00
2018-12-18T00:06:46.906Z,45.40
2018-12-18T00:07:46.960Z,40.90
2018-12-18T00:08:47.136Z,42.10
2018-12-18T00:09:47.126Z,42.10
2018-12-18T00:10:47.214Z,43.10
2018-12-18T00:11:47.279Z,44.00
2018-12-18T00:12:47.490Z,42.90
2018-12-18T00:13:47.481Z,45.30
2018-12-18T00:14:47.538Z,47.40
2018-12-18T00:15:47.593Z,51.30
2018-12-18T00:16:47.671Z,44.40
2018-12-18T00:17:47.763Z,45.80
2018-12-18T00:18:47.847Z,45.30
2018-12-18T00:19:47.963Z,46.40
2018-12-18T00:20:48.075Z,41.90
2018-12-18T00:21:48.053Z,44.50
2018-12-18T00:22:48.187Z,43.40
2018-12-18T00:23:48.248Z,49.20
2018-12-18T00:24:48.321Z,46.20
2018-12-18T00:25:48.392Z,42.20
2018-12-18T00:26:48.453Z,44.90
2018-12-18T00:27:48.576Z,43.60
2018-12-18T00:28:48.663Z,43.90
2018-12-18T00:29:48.734Z,45.80
2018-12-18T00:30:48.770Z,47.70
2018-12-18T00:31:48.836Z,45.50
2018-12-18T00:32:48.902Z,47.30
2018-12-18T00:33:49.009Z,50.60
2018-12-18T00:34:49.088Z,44.90
2018-12-18T00:35:49.139Z,45.20
2018-12-18T00:36:49.275Z,44.10
2018-12-18T00:37:49.321Z,41.00
2018-12-18T00:38:49.395Z,43.60
2018-12-18T00:39:49.521Z,40.60
2018-12-18T00:40:49.587Z,43.90
2018-12-18T00:41:49.666Z,43.20
2018-12-18T00:42:49.729Z,45.70
2018-12-18T00:43:49.810Z,40.10
2018-12-18T00:44:49.930Z,47.80
2018-12-18T00:45:50.061Z,41.20
2018-12-18T00:46:50.072Z,44.60
2018-12-18T00:47:50.113Z,44.50
2018-12-18T00:48:55.830Z,42.60
2018-12-18T00:49:50.282Z,47.10
2018-12-18T00:50:50.340Z,39.90
2018-12-18T00:51:50.456Z,41.20
2018-12-18T00:52:50.513Z,43.30
2018-12-18T00:53:50.725Z,39.40
2018-12-18T00:54:50.714Z,37.90
2018-12-18T00:55:50.733Z,44.90
2018-12-18T00:56:50.830Z,43.80
2018-12-18T00:57:50.904Z,42.70
2018-12-18T00:58:51.000Z,36.60
2018-12-18T00:59:51.082Z,38.40
2018-12-18T01:00:51.120Z,38.30
2018-12-18T01:01:51.319Z,39.10
2018-12-18T01:02:51.295Z,41.10
2018-12-18T01:03:52.978Z,40.20
2018-12-18T01:04:51.462Z,40.70
2018-12-18T01:05:51.527Z,42.40
2018-12-18T01:06:51.628Z,40.50
2018-12-18T01:07:53.425Z,40.60
2018-12-18T01:08:51.793Z,43.10
2018-12-18T01:09:51.926Z,38.00
2018-12-18T01:10:52.156Z,35.70
2018-12-18T01:11:51.982Z,39.20
2018-12-18T01:12:52.040Z,37.20
2018-12-18T01:13:52.139Z,39.30
2018-12-18T01:14:52.226Z,36.70
2018-12-18T01:15:52.317Z,38.30
2018-12-18T01:16:52.390Z,37.40
2018-12-18T01:17:52.481Z,35.80
2018-12-18T01:18:52.545Z,36.80
2018-12-18T01:19:52.603Z,37.60
2018-12-18T01:20:52.739Z,38.30
2018-12-18T01:21:52.775Z,37.70
2018-12-18T01:22:52.835Z,36.70
2018-12-18T01:23:52.934Z,38.80
2018-12-18T01:24:52.997Z,35.60
2018-12-18T01:25:53.143Z,38.00
2018-12-18T01:26:53.305Z,35.80
2018-12-18T01:27:53.232Z,35.30
2018-12-18T01:28:53.320Z,39.10
2018-12-18T01:29:53.398Z,36.10
2018-12-18T01:30:53.518Z,37.40
2018-12-18T01:31:53.575Z,36.60
2018-12-18T01:32:53.620Z,38.40
2018-12-18T01:33:59.119Z,37.90
2018-12-18T01:34:54.912Z,33.90
2018-12-18T01:35:53.860Z,37.10
2018-12-18T01:36:53.971Z,36.80
2018-12-18T01:37:54.032Z,35.00
2018-12-18T01:38:54.141Z,33.90
2018-12-18T01:39:54.173Z,32.10
2018-12-18T01:40:54.254Z,37.40
2018-12-18T01:41:54.343Z,33.80
2018-12-18T01:42:54.468Z,36.40
2018-12-18T01:43:54.526Z,36.90
2018-12-18T01:44:54.548Z,36.70
2018-12-18T01:45:54.630Z,31.10
2018-12-18T01:46:54.726Z,39.10
2018-12-18T01:47:54.800Z,38.00
2018-12-18T01:48:54.920Z,37.30
2018-12-18T01:49:54.967Z,34.20
2018-12-18T01:50:55.133Z,34.70
2018-12-18T01:51:55.121Z,36.20
2018-12-18T01:52:55.174Z,36.60
2018-12-18T01:53:55.252Z,34.50
2018-12-18T01:54:55.360Z,32.90
2018-12-18T01:55:55.494Z,33.20
2018-12-18T01:56:55.509Z,33.80
2018-12-18T01:57:55.587Z,34.90
2018-12-18T01:58:55.760Z,32.60
2018-12-18T01:59:55.830Z,34.10
2018-12-18T02:00:55.879Z,35.10
2018-12-18T02:01:55.894Z,36.20
2018-12-18T02:02:55.971Z,35.20
2018-12-18T02:03:56.051Z,32.40
2018-12-18T02:04:56.149Z,31.00
2018-12-18T02:05:56.224Z,33.90
2018-12-18T02:06:56.344Z,35.20
2018-12-18T02:07:56.487Z,30.40
2018-12-18T02:08:56.459Z,33.80
2018-12-18T02:09:56.531Z,32.50
2018-12-18T02:10:56.585Z,28.90
2018-12-18T02:11:56.687Z,30.60
2018-12-18T02:12:56.722Z,32.30
2018-12-18T02:13:56.823Z,30.80
2018-12-18T02:14:56.921Z,31.70
2018-12-18T02:15:57.077Z,32.50
2018-12-18T02:16:57.071Z,32.80
2018-12-18T02:17:57.111Z,29.60
2018-12-18T02:18:57.205Z,30.80
2018-12-18T02:19:57.291Z,31.30
2018-12-18T02:20:57.359Z,34.00
2018-12-18T02:21:57.482Z,32.10
2018-12-18T02:22:57.523Z,41.60
2018-12-18T02:23:57.685Z,36.20
2018-12-18T02:24:57.673Z,31.70
2018-12-18T02:25:57.739Z,31.70
2018-12-18T02:26:57.836Z,31.00
2018-12-18T02:27:57.893Z,32.50
2018-12-18T02:28:58.053Z,34.30
2018-12-18T02:29:58.051Z,30.90
2018-12-18T02:30:58.129Z,33.20
2018-12-18T02:31:58.269Z,32.50
2018-12-18T02:32:58.257Z,31.70
2018-12-18T02:33:58.356Z,30.90
2018-12-18T02:34:58.431Z,32.60
2018-12-18T02:35:58.484Z,31.90
2018-12-18T02:36:58.612Z,31.50
2018-12-18T02:37:58.662Z,33.90
2018-12-18T02:38:58.734Z,29.50
2018-12-18T02:39:58.875Z,29.90
2018-12-18T02:40:58.980Z,30.60
2018-12-18T02:41:59.036Z,37.80
2018-12-18T02:42:59.087Z,30.20
2018-12-18T02:43:59.162Z,30.80
2018-12-18T02:44:59.261Z,30.90
2018-12-18T02:45:59.320Z,34.10
2018-12-18T02:46:59.392Z,33.90
2018-12-18T02:47:59.476Z,32.80
2018-12-18T02:48:59.941Z,31.90
2018-12-18T02:49:59.648Z,31.50
2018-12-18T02:50:59.701Z,30.00
2018-12-18T02:51:59.771Z,32.20
2018-12-18T02:52:59.879Z,33.40
2018-12-18T02:53:59.954Z,30.40
2018-12-18T02:55:00.063Z,34.50
2018-12-18T02:56:00.118Z,34.90
2018-12-18T02:57:00.309Z,33.10
2018-12-18T02:58:00.274Z,32.60
2018-12-18T02:59:00.379Z,33.50
2018-12-18T03:00:00.454Z,33.20
2018-12-18T03:01:00.511Z,35.50
2018-12-18T03:02:00.589Z,33.10
2018-12-18T03:03:00.667Z,35.30
2018-12-18T03:04:00.775Z,34.90
2018-12-18T03:05:00.884Z,35.50
2018-12-18T03:06:00.897Z,36.40
2018-12-18T03:07:00.984Z,34.10
2018-12-18T03:08:01.086Z,30.60
2018-12-18T03:09:01.146Z,31.80
2018-12-18T03:10:01.231Z,36.60
2018-12-18T03:11:01.292Z,31.40
2018-12-18T03:12:01.371Z,34.70
2018-12-18T03:13:01.514Z,33.80
2018-12-18T03:14:01.583Z,33.50
2018-12-18T03:15:01.661Z,32.40
2018-12-18T03:16:01.732Z,29.60
2018-12-18T03:17:01.812Z,33.20
2018-12-18T03:18:01.905Z,30.20
2018-12-18T03:19:01.994Z,30.60
2018-12-18T03:20:02.062Z,31.50
2018-12-18T03:21:02.126Z,31.50
2018-12-18T03:22:02.338Z,28.50
2018-12-18T03:23:02.291Z,31.40
2018-12-18T03:24:02.369Z,28.60
2018-12-18T03:25:02.430Z,32.80
2018-12-18T03:26:02.488Z,31.20
2018-12-18T03:27:02.592Z,29.50
2018-12-18T03:28:02.681Z,34.00
2018-12-18T03:29:02.732Z,32.40
2018-12-18T03:30:03.140Z,29.10
2018-12-18T03:31:02.887Z,30.30
2018-12-18T03:32:02.996Z,29.50
2018-12-18T03:33:03.064Z,34.40
2018-12-18T03:34:03.153Z,32.00
2018-12-18T03:35:03.224Z,32.00
2018-12-18T03:36:03.259Z,30.60
2018-12-18T03:37:03.358Z,32.30
2018-12-18T03:38:03.500Z,33.20
2018-12-18T03:39:03.538Z,27.80
2018-12-18T03:40:03.608Z,31.40
2018-12-18T03:41:03.670Z,30.60
2018-12-18T03:42:03.736Z,30.70
2018-12-18T03:43:03.840Z,29.60
2018-12-18T03:44:03.951Z,30.20
2018-12-18T03:45:03.994Z,30.70
2018-12-18T03:46:04.126Z,32.00
2018-12-18T03:47:04.093Z,31.40
2018-12-18T03:48:04.204Z,32.40
2018-12-18T03:49:04.789Z,31.30
2018-12-18T03:50:04.386Z,29.70
2018-12-18T03:51:04.440Z,28.20
2018-12-18T03:52:04.510Z,35.20
2018-12-18T03:53:04.613Z,35.00
2018-12-18T03:54:04.706Z,31.60
2018-12-18T03:55:04.816Z,32.10
2018-12-18T03:56:04.819Z,35.60
2018-12-18T03:57:04.895Z,35.90
2018-12-18T03:58:04.990Z,34.30
2018-12-18T03:59:05.057Z,35.00
2018-12-18T04:00:05.140Z,32.30
2018-12-18T04:01:05.224Z,34.00
2018-12-18T04:02:05.288Z,31.50
2018-12-18T04:03:05.460Z,37.50
2018-12-18T04:04:05.459Z,34.20
2018-12-18T04:05:05.522Z,33.20
2018-12-18T04:06:05.601Z,34.10
2018-12-18T04:07:05.676Z,31.80
2018-12-18T04:08:05.772Z,36.30
2018-12-18T04:09:05.858Z,34.60
2018-12-18T04:10:05.891Z,35.60
2018-12-18T04:11:06.102Z,35.10
2018-12-18T04:12:06.069Z,36.70
2018-12-18T04:13:06.169Z,39.00
2018-12-18T04:14:06.323Z,39.00
2018-12-18T04:15:06.286Z,34.70
2018-12-18T04:16:06.404Z,35.90
2018-12-18T04:17:06.470Z,41.60
2018-12-18T04:18:06.549Z,35.60
2018-12-18T04:19:06.648Z,36.70
2018-12-18T04:20:06.651Z,34.60
2018-12-18T04:21:06.752Z,34.00
2018-12-18T04:22:06.827Z,39.30
2018-12-18T04:23:06.947Z,38.00
2018-12-18T04:24:07.005Z,37.20
2018-12-18T04:25:07.057Z,35.90
2018-12-18T04:26:07.374Z,35.70
2018-12-18T04:27:07.220Z,35.70
2018-12-18T04:28:07.308Z,34.20
2018-12-18T04:29:07.399Z,36.80
2018-12-18T04:30:07.460Z,39.50
2018-12-18T04:31:07.554Z,35.10
2018-12-18T04:32:07.609Z,38.90
2018-12-18T04:33:07.689Z,37.50
2018-12-18T04:34:07.775Z,41.90
2018-12-18T04:35:07.860Z,34.90
2018-12-18T04:36:08.030Z,35.90
2018-12-18T04:37:07.980Z,40.10
2018-12-18T04:38:08.084Z,40.30
2018-12-18T04:39:08.150Z,36.90
2018-12-18T04:40:08.222Z,37.70
2018-12-18T04:41:08.318Z,36.70
2018-12-18T04:42:08.383Z,38.60
2018-12-18T04:43:08.511Z,39.20
2018-12-18T04:44:08.595Z,34.00
2018-12-18T04:45:08.597Z,40.50
2018-12-18T04:46:08.700Z,39.70
2018-12-18T04:47:08.758Z,38.80
2018-12-18T04:48:08.853Z,45.20
2018-12-18T04:49:08.923Z,41.20
2018-12-18T04:50:08.980Z,38.10
2018-12-18T04:51:09.085Z,37.70
2018-12-18T04:52:09.222Z,38.60
2018-12-18T04:53:09.221Z,41.70
2018-12-18T04:54:09.297Z,36.40
2018-12-18T04:55:09.375Z,39.30
2018-12-18T04:56:09.456Z,37.60
2018-12-18T04:57:09.517Z,42.90
2018-12-18T04:58:09.601Z,39.80
2018-12-18T04:59:09.694Z,43.00
2018-12-18T05:00:09.785Z,38.60
2018-12-18T05:01:09.822Z,39.10
2018-12-18T05:02:09.887Z,42.10
2018-12-18T05:03:09.979Z,39.70
2018-12-18T05:04:10.056Z,39.60
2018-12-18T05:05:10.108Z,40.80
2018-12-18T05:06:10.200Z,42.90
2018-12-18T05:07:10.273Z,46.50
2018-12-18T05:08:10.399Z,43.60
2018-12-18T05:09:10.520Z,44.40
2018-12-18T05:10:10.526Z,42.00
2018-12-18T05:11:10.608Z,44.80
2018-12-18T05:12:10.681Z,40.30
2018-12-18T05:13:10.769Z,45.00
2018-12-18T05:14:10.893Z,39.30
2018-12-18T05:15:10.942Z,46.00
2018-12-18T05:16:11.049Z,42.70
2018-12-18T05:17:11.200Z,42.70
2018-12-18T05:18:11.171Z,41.40
2018-12-18T05:19:11.292Z,43.90
2018-12-18T05:20:12.545Z,45.20
2018-12-18T05:21:11.434Z,43.80
2018-12-18T05:22:11.477Z,40.90
2018-12-18T05:23:11.565Z,49.40
2018-12-18T05:24:11.699Z,42.80
2018-12-18T05:25:11.880Z,42.60
2018-12-18T05:26:11.836Z,48.40
2018-12-18T05:27:11.881Z,41.60
2018-12-18T05:28:11.974Z,42.60
2018-12-18T05:29:12.090Z,44.80
2018-12-18T05:30:12.126Z,42.50
2018-12-18T05:31:12.216Z,36.30
2018-12-18T05:32:12.287Z,42.10
2018-12-18T05:33:12.389Z,42.10
2018-12-18T05:34:12.447Z,40.80
2018-12-18T05:35:12.501Z,41.40
2018-12-18T05:36:12.588Z,46.50
2018-12-18T05:37:12.647Z,44.20
2018-12-18T05:38:12.723Z,49.40
2018-12-18T05:39:12.832Z,49.70
2018-12-18T05:40:12.879Z,48.70
2018-12-18T05:41:13.047Z,43.00
2018-12-18T05:42:13.019Z,38.10
2018-12-18T05:43:13.107Z,43.40
2018-12-18T05:44:13.228Z,40.30
2018-12-18T05:45:13.254Z,39.20
2018-12-18T05:46:13.355Z,44.60
2018-12-18T05:47:13.424Z,43.50
2018-12-18T05:48:13.502Z,40.70
2018-12-18T05:49:13.625Z,47.40
2018-12-18T05:50:13.721Z,44.90
2018-12-18T05:51:13.736Z,48.50
2018-12-18T05:52:13.808Z,43.00
2018-12-18T05:53:13.887Z,44.50
2018-12-18T05:54:13.977Z,44.00
2018-12-18T05:55:14.047Z,41.50
2018-12-18T05:56:14.116Z,42.10
2018-12-18T05:57:14.204Z,46.10
2018-12-18T05:58:14.384Z,39.80
2018-12-18T05:59:14.367Z,44.60
2018-12-18T06:00:14.436Z,43.80
2018-12-18T06:01:14.515Z,38.20
2018-12-18T06:02:14.592Z,44.50
2018-12-18T06:03:14.676Z,47.30
2018-12-18T06:04:14.795Z,39.30
2018-12-18T06:05:15.059Z,40.90
2018-12-18T06:06:15.006Z,40.80
2018-12-18T06:07:14.962Z,39.90
2018-12-18T06:08:15.058Z,42.60
2018-12-18T06:09:15.156Z,41.00
2018-12-18T06:10:15.210Z,44.40
2018-12-18T06:11:15.295Z,46.20
2018-12-18T06:12:15.342Z,43.10
2018-12-18T06:13:15.431Z,41.30
2018-12-18T06:14:15.576Z,40.60
2018-12-18T06:15:15.593Z,44.40
2018-12-18T06:16:15.677Z,42.30
2018-12-18T06:17:15.747Z,41.10
2018-12-18T06:18:15.808Z,48.00
2018-12-18T06:19:15.922Z,50.10
2018-12-18T06:20:15.980Z,45.20
2018-12-18T06:21:16.050Z,42.00
2018-12-18T06:22:16.177Z,46.00
2018-12-18T06:23:16.209Z,51.80
2018-12-18T06:24:16.321Z,43.40
2018-12-18T06:25:16.743Z,46.80
2018-12-18T06:26:16.475Z,46.50
2018-12-18T06:27:16.567Z,46.20
2018-12-18T06:28:16.626Z,47.70
2018-12-18T06:29:16.739Z,56.10
2018-12-18T06:30:16.811Z,48.00
2018-12-18T06:31:16.947Z,48.40
2018-12-18T06:32:16.960Z,52.40
2018-12-18T06:33:17.026Z,45.90
2018-12-18T06:34:17.105Z,52.20
2018-12-18T06:35:17.215Z,52.30
2018-12-18T06:36:17.274Z,52.90
2018-12-18T06:37:17.370Z,51.60
2018-12-18T06:38:17.501Z,52.00
2018-12-18T06:39:17.633Z,45.80
2018-12-18T06:40:17.600Z,51.70
2018-12-18T06:41:17.670Z,48.10
2018-12-18T06:42:17.769Z,48.10
2018-12-18T06:43:17.831Z,45.20
2018-12-18T06:44:17.917Z,45.40
2018-12-18T06:45:17.994Z,47.90
2018-12-18T06:46:18.060Z,48.20
2018-12-18T06:47:18.240Z,43.10
2018-12-18T06:48:18.214Z,42.90
2018-12-18T06:49:18.315Z,45.40
2018-12-18T06:50:18.382Z,44.00
2018-12-18T06:51:18.434Z,42.50
2018-12-18T06:52:18.542Z,41.80
2018-12-18T06:53:18.603Z,44.10
2018-12-18T06:54:18.698Z,46.50
2018-12-18T06:55:18.809Z,48.00
2018-12-18T06:56:18.802Z,47.90
2018-12-18T06:57:18.914Z,45.50
2018-12-18T06:58:18.989Z,44.00
2018-12-18T06:59:19.083Z,43.60
2018-12-18T07:00:19.151Z,44.20
2018-12-18T07:01:19.233Z,46.40
2018-12-18T07:02:19.316Z,47.00
2018-12-18T07:03:19.424Z,46.80
2018-12-18T07:04:19.501Z,44.10
2018-12-18T07:05:19.527Z,49.80
2018-12-18T07:06:19.605Z,48.50
2018-12-18T07:07:19.697Z,42.50
2018-12-18T07:08:19.741Z,44.60
2018-12-18T07:09:19.852Z,44.40
2018-12-18T07:10:19.912Z,47.70
2018-12-18T07:11:20.005Z,45.90
2018-12-18T07:12:20.215Z,46.70
2018-12-18T07:13:20.128Z,46.40
2018-12-18T07:14:20.234Z,47.20
2018-12-18T07:15:20.295Z,44.90
2018-12-18T07:16:20.389Z,43.90
2018-12-18T07:17:20.462Z,45.70
2018-12-18T07:18:20.519Z,47.30
2018-12-18T07:19:20.587Z,46.90
2018-12-18T07:20:20.828Z,47.30
2018-12-18T07:21:20.751Z,45.90
2018-12-18T07:22:20.846Z,46.50
2018-12-18T07:23:20.904Z,44.30
2018-12-18T07:24:20.968Z,45.60
2018-12-18T07:25:21.102Z,45.50
2018-12-18T07:26:21.153Z,49.20
2018-12-18T07:27:21.247Z,48.90
2018-12-18T07:28:21.335Z,44.30
2018-12-18T07:29:21.352Z,41.10
2018-12-18T07:30:21.476Z,50.60
2018-12-18T07:31:21.564Z,49.60
2018-12-18T07:32:21.655Z,46.40
2018-12-18T07:33:21.714Z,45.10
2018-12-18T07:34:21.791Z,46.60
2018-12-18T07:35:23.392Z,52.40
2018-12-18T07:36:22.022Z,48.20
2018-12-18T07:37:22.022Z,45.20
2018-12-18T07:38:22.082Z,48.90
2018-12-18T07:39:22.166Z,46.90
2018-12-18T07:40:22.270Z,50.00
2018-12-18T07:41:22.313Z,43.00
2018-12-18T07:42:22.400Z,45.10
2018-12-18T07:43:22.474Z,47.20
2018-12-18T07:44:22.789Z,51.00
2018-12-18T07:45:22.785Z,51.70
2018-12-18T07:46:22.698Z,47.70
2018-12-18T07:47:22.837Z,47.50
2018-12-18T07:48:22.856Z,48.60
2018-12-18T07:49:22.940Z,45.90
2018-12-18T07:50:23.037Z,46.50
2018-12-18T07:51:23.098Z,45.80
2018-12-18T07:52:23.187Z,44.20
2018-12-18T07:53:23.339Z,48.30
2018-12-18T07:54:23.312Z,41.10
2018-12-18T07:55:23.404Z,45.50
2018-12-18T07:56:23.478Z,41.30
2018-12-18T07:57:23.565Z,41.20
2018-12-18T07:58:23.618Z,41.90
2018-12-18T07:59:23.707Z,43.50
2018-12-18T08:00:23.799Z,36.60
2018-12-18T08:01:23.946Z,38.40
2018-12-18T08:02:23.942Z,44.00
2018-12-18T08:03:23.993Z,41.20
2018-12-18T08:04:24.087Z,40.30
2018-12-18T08:05:29.687Z,40.10
2018-12-18T08:06:25.250Z,44.50
2018-12-18T08:07:24.335Z,40.60
2018-12-18T08:08:24.406Z,39.40
2018-12-18T08:09:24.501Z,35.50
2018-12-18T08:10:24.548Z,41.90
2018-12-18T08:11:24.629Z,35.70
2018-12-18T08:12:24.786Z,39.00
2018-12-18T08:13:24.769Z,38.80
2018-12-18T08:14:24.848Z,41.40
2018-12-18T08:15:24.916Z,39.10
2018-12-18T08:16:25.012Z,40.70
2018-12-18T08:17:25.149Z,38.20
2018-12-18T08:18:25.219Z,40.40
2018-12-18T08:19:25.262Z,38.60
2018-12-18T08:20:25.345Z,40.00
2018-12-18T08:21:25.432Z,38.50
2018-12-18T08:22:25.496Z,39.20
2018-12-18T08:23:25.572Z,37.80
2018-12-18T08:24:25.651Z,37.40
2018-12-18T08:25:25.821Z,35.70
2018-12-18T08:26:25.884Z,33.50
2018-12-18T08:27:25.884Z,34.60
2018-12-18T08:28:26.024Z,32.80
2018-12-18T08:29:26.059Z,39.80
2018-12-18T08:30:26.157Z,38.40
2018-12-18T08:31:26.201Z,40.00
2018-12-18T08:32:26.292Z,37.90
2018-12-18T08:33:26.378Z,36.50
2018-12-18T08:34:26.594Z,35.60
2018-12-18T08:35:26.579Z,36.60
2018-12-18T08:36:26.624Z,35.60
2018-12-18T08:37:26.697Z,36.90
2018-12-18T08:38:26.785Z,34.20
2018-12-18T08:39:26.850Z,37.20
2018-12-18T08:40:26.972Z,44.30
2018-12-18T08:41:27.006Z,44.80
2018-12-18T08:42:27.112Z,51.90
2018-12-18T08:43:27.159Z,39.30
2018-12-18T08:44:27.225Z,38.20
2018-12-18T08:45:27.336Z,38.30
2018-12-18T08:46:27.381Z,35.80
2018-12-18T08:47:27.467Z,35.60
2018-12-18T08:48:27.536Z,34.10
2018-12-18T08:49:27.613Z,34.10
2018-12-18T08:50:27.811Z,34.10
2018-12-18T08:51:27.747Z,35.40
2018-12-18T08:52:27.852Z,38.60
2018-12-18T08:53:27.923Z,38.20
2018-12-18T08:54:27.978Z,36.30
2018-12-18T08:55:28.115Z,34.50
2018-12-18T08:56:28.149Z,33.90
2018-12-18T08:57:28.226Z,34.30
2018-12-18T08:58:28.361Z,34.10
2018-12-18T08:59:28.417Z,33.60
2018-12-18T09:00:28.496Z,33.00
2018-12-18T09:01:28.519Z,32.90
2018-12-18T09:02:28.596Z,35.30
2018-12-18T09:03:28.697Z,34.20
2018-12-18T09:04:28.756Z,33.00
2018-12-18T09:05:28.861Z,33.80
2018-12-18T09:06:28.920Z,36.80
2018-12-18T09:07:29.093Z,34.60
2018-12-18T09:08:29.086Z,35.80
2018-12-18T09:09:29.126Z,33.10
2018-12-18T09:10:29.224Z,34.30
2018-12-18T09:11:29.293Z,33.40
2018-12-18T09:12:29.381Z,31.50
2018-12-18T09:13:29.473Z,34.80
2018-12-18T09:14:29.526Z,33.20
2018-12-18T09:15:29.807Z,36.90
2018-12-18T09:16:29.695Z,36.30
2018-12-18T09:17:29.782Z,39.10
2018-12-18T09:18:29.850Z,35.50
2018-12-18T09:19:29.910Z,38.10
2018-12-18T09:20:30.258Z,33.90
2018-12-18T09:21:30.046Z,36.30
2018-12-18T09:22:30.142Z,39.20
2018-12-18T09:23:30.318Z,33.80
2018-12-18T09:24:30.293Z,33.20
2018-12-18T09:25:30.403Z,34.30
2018-12-18T09:26:30.457Z,35.00
2018-12-18T09:27:30.532Z,34.00
2018-12-18T09:28:30.629Z,37.30
2018-12-18T09:29:30.698Z,33.80
2018-12-18T09:30:30.775Z,34.80
2018-12-18T09:31:30.905Z,35.00
2018-12-18T09:32:30.948Z,35.20
2018-12-18T09:33:31.013Z,34.50
2018-12-18T09:34:31.092Z,37.20
2018-12-18T09:35:31.173Z,33.10
2018-12-18T09:36:31.260Z,36.40
2018-12-18T09:37:31.347Z,35.70
2018-12-18T09:38:31.433Z,33.90
2018-12-18T09:39:31.495Z,33.20
2018-12-18T09:40:31.620Z,36.50
2018-12-18T09:41:31.661Z,35.30
2018-12-18T09:42:31.743Z,32.30
2018-12-18T09:43:31.816Z,35.90
2018-12-18T09:44:31.861Z,34.90
2018-12-18T09:45:31.963Z,36.30
2018-12-18T09:46:32.046Z,34.00
2018-12-18T09:47:32.132Z,34.30
2018-12-18T09:48:32.335Z,33.30
2018-12-18T09:49:32.274Z,35.60
2018-12-18T09:50:32.394Z,35.70
2018-12-18T09:51:32.465Z,35.30
2018-12-18T09:52:32.531Z,35.00
2018-12-18T09:53:32.634Z,36.10
2018-12-18T09:54:32.685Z,32.80
2018-12-18T09:55:32.773Z,33.90
2018-12-18T09:56:32.966Z,32.10
2018-12-18T09:57:32.905Z,31.90
2018-12-18T09:58:33.001Z,34.90
2018-12-18T09:59:33.088Z,33.10
2018-12-18T10:00:33.127Z,34.20
2018-12-18T10:01:33.220Z,34.20
2018-12-18T10:02:33.322Z,36.70
2018-12-18T10:03:33.622Z,42.40
2018-12-18T10:04:33.501Z,30.10
2018-12-18T10:05:33.507Z,33.70
2018-12-18T10:06:33.602Z,38.80
2018-12-18T10:07:33.924Z,32.40
2018-12-18T10:08:33.786Z,33.50
2018-12-18T10:09:33.822Z,33.00
2018-12-18T10:10:33.903Z,31.70
2018-12-18T10:11:34.006Z,32.70
2018-12-18T10:12:34.098Z,32.70
2018-12-18T10:13:34.221Z,34.40
2018-12-18T10:14:34.233Z,29.40
2018-12-18T10:15:34.302Z,30.20
2018-12-18T10:16:34.402Z,29.70
2018-12-18T10:17:34.534Z,33.60
2018-12-18T10:18:34.565Z,30.10
2018-12-18T10:19:34.617Z,31.40
2018-12-18T10:20:34.705Z,27.80
2018-12-18T10:21:34.917Z,29.40
2018-12-18T10:22:34.833Z,32.80
2018-12-18T10:23:34.961Z,31.80
2018-12-18T10:24:35.007Z,31.30
2018-12-18T10:25:35.079Z,28.10
2018-12-18T10:26:35.177Z,29.90
2018-12-18T10:27:35.227Z,29.20
2018-12-18T10:28:35.328Z,31.70
2018-12-18T10:29:35.505Z,33.30
2018-12-18T10:30:35.459Z,29.10
2018-12-18T10:31:35.562Z,28.80
2018-12-18T10:32:35.620Z,28.10
2018-12-18T10:33:35.713Z,30.80
2018-12-18T10:34:35.758Z,30.70
2018-12-18T10:35:36.734Z,30.40
2018-12-18T10:36:35.949Z,34.40
2018-12-18T10:37:36.060Z,32.30
2018-12-18T10:38:36.074Z,30.30
2018-12-18T10:39:36.150Z,31.90
2018-12-18T10:40:36.231Z,30.20
2018-12-18T10:41:36.337Z,32.20
2018-12-18T10:42:36.397Z,29.70
2018-12-18T10:43:36.482Z,32.00
2018-12-18T10:44:36.568Z,30.40
2018-12-18T10:45:36.668Z,27.80
2018-12-18T10:46:36.716Z,28.90
2018-12-18T10:47:36.800Z,28.80
2018-12-18T10:48:36.906Z,29.70
2018-12-18T10:49:36.996Z,28.30
2018-12-18T10:50:37.042Z,33.10
2018-12-18T10:51:37.137Z,32.10
2018-12-18T10:52:37.180Z,30.10
2018-12-18T10:53:37.343Z,31.40
2018-12-18T10:54:37.443Z,27.60
2018-12-18T10:55:37.423Z,30.70
2018-12-18T10:56:37.526Z,28.30
2018-12-18T10:57:37.570Z,30.30
2018-12-18T10:58:37.916Z,28.80
2018-12-18T10:59:37.756Z,28.90
2018-12-18T11:00:37.814Z,29.80
2018-12-18T11:01:37.915Z,28.20
2018-12-18T11:02:38.113Z,29.90
2018-12-18T11:03:38.054Z,29.80
2018-12-18T11:04:38.138Z,27.80
2018-12-18T11:05:38.192Z,28.40
2018-12-18T11:06:38.287Z,31.70
2018-12-18T11:07:38.340Z,29.80
2018-12-18T11:08:38.441Z,29.30
2018-12-18T11:09:38.535Z,29.00
2018-12-18T11:10:38.692Z,29.90
2018-12-18T11:11:38.671Z,30.40
2018-12-18T11:12:38.803Z,32.80
2018-12-18T11:13:38.804Z,31.50
2018-12-18T11:14:38.905Z,33.30
2018-12-18T11:15:38.968Z,32.70
2018-12-18T11:16:39.060Z,27.60
2018-12-18T11:17:39.120Z,30.30
2018-12-18T11:18:39.255Z,28.30
2018-12-18T11:19:39.254Z,27.60
2018-12-18T11:20:39.338Z,31.50
2018-12-18T11:21:39.435Z,29.90
2018-12-18T11:22:39.497Z,29.00
2018-12-18T11:23:39.592Z,32.40
2018-12-18T11:24:39.668Z,31.00
2018-12-18T11:25:39.706Z,31.00
2018-12-18T11:26:39.891Z,29.10
2018-12-18T11:27:39.881Z,30.30
2018-12-18T11:28:39.995Z,31.10
2018-12-18T11:29:40.066Z,31.50
2018-12-18T11:30:40.127Z,32.90
2018-12-18T11:31:40.209Z,27.30
2018-12-18T11:32:40.280Z,29.90
2018-12-18T11:33:40.385Z,33.90
2018-12-18T11:34:40.471Z,31.10
2018-12-18T11:35:40.627Z,29.80
2018-12-18T11:36:40.576Z,31.20
2018-12-18T11:37:40.658Z,30.40
2018-12-18T11:38:40.772Z,28.30
2018-12-18T11:39:40.844Z,29.50
2018-12-18T11:40:40.906Z,29.30
2018-12-18T11:41:40.974Z,39.00
2018-12-18T11:42:41.040Z,28.40
2018-12-18T11:43:41.278Z,30.80
2018-12-18T11:44:41.444Z,29.20
2018-12-18T11:45:41.279Z,33.10
2018-12-18T11:46:41.340Z,31.70
2018-12-18T11:47:41.443Z,29.10
2018-12-18T11:48:41.565Z,29.30
2018-12-18T11:49:41.626Z,31.50
2018-12-18T11:50:41.695Z,35.20
2018-12-18T11:51:41.823Z,28.80
2018-12-18T11:52:41.837Z,27.60
2018-12-18T11:53:41.929Z,34.90
2018-12-18T11:54:42.019Z,33.60
2018-12-18T11:55:42.069Z,32.10
2018-12-18T11:56:42.146Z,36.50
2018-12-18T11:57:42.242Z,31.40
2018-12-18T11:58:42.306Z,31.30
2018-12-18T11:59:42.652Z,28.70
2018-12-18T12:00:42.443Z,29.70
2018-12-18T12:01:42.521Z,33.40
2018-12-18T12:02:42.945Z,34.20
2018-12-18T12:03:42.675Z,39.90
2018-12-18T12:04:42.775Z,36.70
2018-12-18T12:05:42.826Z,33.20
2018-12-18T12:06:42.916Z,43.70
2018-12-18T12:07:43.041Z,44.10
2018-12-18T12:08:43.122Z,39.90
2018-12-18T12:09:43.150Z,46.60
2018-12-18T12:10:43.209Z,40.70
2018-12-18T12:11:43.302Z,46.40
2018-12-18T12:12:43.397Z,44.70
2018-12-18T12:13:43.479Z,37.90
2018-12-18T12:14:43.549Z,40.10
2018-12-18T12:15:43.626Z,41.00
2018-12-18T12:16:43.778Z,40.70
2018-12-18T12:17:43.781Z,39.30
2018-12-18T12:18:43.860Z,42.40
2018-12-18T12:19:43.930Z,42.40
2018-12-18T12:20:43.972Z,41.00
2018-12-18T12:21:44.053Z,43.00
2018-12-18T12:22:44.159Z,44.50
2018-12-18T12:23:44.240Z,44.90
2018-12-18T12:24:44.395Z,39.50
2018-12-18T12:25:44.345Z,44.60
2018-12-18T12:26:44.450Z,41.20
2018-12-18T12:27:44.544Z,39.80
2018-12-18T12:28:44.840Z,41.70
2018-12-18T12:29:44.709Z,40.70
2018-12-18T12:30:44.760Z,44.30
2018-12-18T12:31:44.821Z,47.40
2018-12-18T12:32:44.988Z,42.70
2018-12-18T12:33:44.998Z,40.60
2018-12-18T12:34:45.320Z,41.80
2018-12-18T12:35:45.128Z,45.20
2018-12-18T12:36:45.191Z,41.10
2018-12-18T12:37:45.286Z,41.70
2018-12-18T12:38:45.364Z,39.30
2018-12-18T12:39:45.479Z,35.80
2018-12-18T12:40:45.583Z,37.70
2018-12-18T12:41:45.569Z,30.10
2018-12-18T12:42:45.670Z,32.30
2018-12-18T12:43:45.709Z,33.30
2018-12-18T12:44:45.842Z,33.00
2018-12-18T12:45:45.883Z,37.60
2018-12-18T12:46:45.966Z,33.00
2018-12-18T12:47:46.060Z,34.40
2018-12-18T12:48:46.149Z,31.70
2018-12-18T12:49:46.250Z,31.20
2018-12-18T12:50:46.275Z,32.00
2018-12-18T12:51:46.350Z,31.30
2018-12-18T12:52:46.445Z,36.80
2018-12-18T12:53:46.511Z,29.90